sensor_id;sensor_type;location;lat;lon;timestamp;pressure;altitude;pressure_sealevel;temperature;humidity
38630;BME280;24384;51.988;4.644;2023-04-16T00:01:03;102374.50;;;8.99;80.58
38630;BME280;24384;51.988;4.644;2023-04-16T00:03:30;102376.25;;;8.91;82.02
38630;BME280;24384;51.988;4.644;2023-04-16T00:05:56;102380.63;;;9.01;81.93
38630;BME280;24384;51.988;4.644;2023-04-16T00:08:22;102377.16;;;8.88;82.56
38630;BME280;24384;51.988;4.644;2023-04-16T00:10:51;102387.69;;;8.81;84.72
38630;BME280;24384;51.988;4.644;2023-04-16T00:13:16;102378.00;;;8.89;84.69
38630;BME280;24384;51.988;4.644;2023-04-16T00:15:41;102378.84;;;9.03;84.53
38630;BME280;24384;51.988;4.644;2023-04-16T00:18:07;102373.59;;;8.97;84.73
38630;BME280;24384;51.988;4.644;2023-04-16T00:20:32;102369.22;;;9.04;84.84
38630;BME280;24384;51.988;4.644;2023-04-16T00:22:57;102362.19;;;9.00;85.17
38630;BME280;24384;51.988;4.644;2023-04-16T00:25:22;102370.97;;;8.88;85.44
38630;BME280;24384;51.988;4.644;2023-04-16T00:27:48;102378.00;;;8.96;85.40
38630;BME280;24384;51.988;4.644;2023-04-16T00:30:13;102378.00;;;8.84;85.64
38630;BME280;24384;51.988;4.644;2023-04-16T00:32:38;102376.25;;;8.80;86.41
38630;BME280;24384;51.988;4.644;2023-04-16T00:35:03;102385.06;;;8.76;87.56
38630;BME280;24384;51.988;4.644;2023-04-16T00:37:29;102378.91;;;8.62;88.39
38630;BME280;24384;51.988;4.644;2023-04-16T00:39:54;102370.13;;;8.73;88.09
38630;BME280;24384;51.988;4.644;2023-04-16T00:42:19;102371.00;;;8.58;88.18
38630;BME280;24384;51.988;4.644;2023-04-16T00:44:44;102372.78;;;8.64;88.56
38630;BME280;24384;51.988;4.644;2023-04-16T00:47:10;102375.41;;;8.70;88.48
38630;BME280;24384;51.988;4.644;2023-04-16T00:49:35;102372.78;;;8.59;89.25
38630;BME280;24384;51.988;4.644;2023-04-16T00:52:00;102369.28;;;8.67;89.28
38630;BME280;24384;51.988;4.644;2023-04-16T00:54:27;102371.91;;;8.79;89.02
38630;BME280;24384;51.988;4.644;2023-04-16T00:56:52;102377.16;;;8.84;88.22
38630;BME280;24384;51.988;4.644;2023-04-16T00:59:18;102371.88;;;8.84;87.52
38630;BME280;24384;51.988;4.644;2023-04-16T01:01:43;102374.53;;;8.82;88.10
38630;BME280;24384;51.988;4.644;2023-04-16T01:04:08;102374.50;;;8.94;88.13
38630;BME280;24384;51.988;4.644;2023-04-16T01:06:33;102378.88;;;8.89;88.02
38630;BME280;24384;51.988;4.644;2023-04-16T01:09:00;102376.25;;;8.74;88.03
38630;BME280;24384;51.988;4.644;2023-04-16T01:11:25;102371.88;;;8.85;88.78
38630;BME280;24384;51.988;4.644;2023-04-16T01:13:51;102372.75;;;8.84;88.42
38630;BME280;24384;51.988;4.644;2023-04-16T01:16:16;102375.38;;;8.78;88.14
38630;BME280;24384;51.988;4.644;2023-04-16T01:18:41;102372.75;;;8.84;87.50
38630;BME280;24384;51.988;4.644;2023-04-16T01:21:06;102370.13;;;8.69;88.45
38630;BME280;24384;51.988;4.644;2023-04-16T01:23:33;102375.41;;;8.70;89.39
38630;BME280;24384;51.988;4.644;2023-04-16T01:25:58;102378.88;;;8.88;88.67
38630;BME280;24384;51.988;4.644;2023-04-16T01:28:23;102376.25;;;8.80;89.04
38630;BME280;24384;51.988;4.644;2023-04-16T01:30:48;102383.28;;;8.69;89.28
38630;BME280;24384;51.988;4.644;2023-04-16T01:33:14;102377.16;;;8.71;89.29
38630;BME280;24384;51.988;4.644;2023-04-16T01:35:42;102376.25;;;8.71;89.18
38630;BME280;24384;51.988;4.644;2023-04-16T01:38:08;102376.25;;;8.77;89.05
38630;BME280;24384;51.988;4.644;2023-04-16T01:40:34;102380.66;;;8.80;89.13
38630;BME280;24384;51.988;4.644;2023-04-16T01:42:59;102382.41;;;8.79;88.96
38630;BME280;24384;51.988;4.644;2023-04-16T01:45:24;102379.78;;;8.74;88.94
38630;BME280;24384;51.988;4.644;2023-04-16T01:47:49;102380.66;;;8.64;89.21
38630;BME280;24384;51.988;4.644;2023-04-16T01:50:16;102385.06;;;8.76;89.06
38630;BME280;24384;51.988;4.644;2023-04-16T01:52:41;102380.66;;;8.73;89.29
38630;BME280;24384;51.988;4.644;2023-04-16T01:55:07;102379.78;;;8.73;88.74
38630;BME280;24384;51.988;4.644;2023-04-16T01:57:32;102388.56;;;8.69;89.02
38630;BME280;24384;51.988;4.644;2023-04-16T01:59:57;102387.69;;;8.51;89.16
38630;BME280;24384;51.988;4.644;2023-04-16T02:02:22;102384.16;;;8.54;89.33
38630;BME280;24384;51.988;4.644;2023-04-16T02:04:51;102394.69;;;8.62;89.61
38630;BME280;24384;51.988;4.644;2023-04-16T02:07:17;102393.81;;;8.66;88.86
38630;BME280;24384;51.988;4.644;2023-04-16T02:09:42;102389.41;;;8.57;89.60
38630;BME280;24384;51.988;4.644;2023-04-16T02:12:08;102386.78;;;8.71;88.92
38630;BME280;24384;51.988;4.644;2023-04-16T02:14:35;102385.91;;;8.67;88.59
38630;BME280;24384;51.988;4.644;2023-04-16T02:17:00;102390.31;;;8.57;89.50
38630;BME280;24384;51.988;4.644;2023-04-16T02:19:25;102390.31;;;8.57;89.02
38630;BME280;24384;51.988;4.644;2023-04-16T02:21:51;102399.06;;;8.61;88.95
38630;BME280;24384;51.988;4.644;2023-04-16T02:24:16;102395.56;;;8.59;89.10
38630;BME280;24384;51.988;4.644;2023-04-16T02:26:41;102392.94;;;8.44;89.98
38630;BME280;24384;51.988;4.644;2023-04-16T02:29:07;102395.56;;;8.59;89.83
38630;BME280;24384;51.988;4.644;2023-04-16T02:31:32;102399.03;;;8.35;90.30
38630;BME280;24384;51.988;4.644;2023-04-16T02:33:57;102397.31;;;8.46;90.26
38630;BME280;24384;51.988;4.644;2023-04-16T02:36:22;102403.47;;;8.47;90.47
38630;BME280;24384;51.988;4.644;2023-04-16T02:38:48;102403.44;;;8.42;90.49
38630;BME280;24384;51.988;4.644;2023-04-16T02:41:13;102401.66;;;8.35;91.50
38630;BME280;24384;51.988;4.644;2023-04-16T02:43:38;102409.59;;;8.44;91.29
38630;BME280;24384;51.988;4.644;2023-04-16T02:46:03;102409.59;;;8.44;91.54
38630;BME280;24384;51.988;4.644;2023-04-16T02:48:30;102413.03;;;8.38;91.90
38630;BME280;24384;51.988;4.644;2023-04-16T02:50:55;102405.16;;;8.37;91.53
38630;BME280;24384;51.988;4.644;2023-04-16T02:53:20;102416.56;;;8.39;91.76
38630;BME280;24384;51.988;4.644;2023-04-16T02:55:49;102415.66;;;8.41;91.76
38630;BME280;24384;51.988;4.644;2023-04-16T02:58:16;102412.22;;;8.52;91.93
38630;BME280;24384;51.988;4.644;2023-04-16T03:00:41;102408.72;;;8.56;91.57
38630;BME280;24384;51.988;4.644;2023-04-16T03:03:06;102409.59;;;8.46;92.06
38630;BME280;24384;51.988;4.644;2023-04-16T03:05:32;102406.03;;;8.33;92.60
38630;BME280;24384;51.988;4.644;2023-04-16T03:07:57;102406.03;;;8.30;92.72
38630;BME280;24384;51.988;4.644;2023-04-16T03:10:22;102406.03;;;8.30;93.41
38630;BME280;24384;51.988;4.644;2023-04-16T03:12:48;102408.69;;;8.37;93.10
38630;BME280;24384;51.988;4.644;2023-04-16T03:15:13;102406.91;;;8.36;92.83
38630;BME280;24384;51.988;4.644;2023-04-16T03:17:38;102418.28;;;8.31;92.90
38630;BME280;24384;51.988;4.644;2023-04-16T03:20:03;102410.41;;;8.26;92.81
38630;BME280;24384;51.988;4.644;2023-04-16T03:22:30;102413.00;;;8.18;93.52
38630;BME280;24384;51.988;4.644;2023-04-16T03:24:55;102414.78;;;8.22;93.66
38630;BME280;24384;51.988;4.644;2023-04-16T03:27:22;102414.78;;;8.16;93.80
38630;BME280;24384;51.988;4.644;2023-04-16T03:29:47;102420.88;;;8.12;93.91
38630;BME280;24384;51.988;4.644;2023-04-16T03:32:12;102422.66;;;8.24;94.50
38630;BME280;24384;51.988;4.644;2023-04-16T03:34:37;102423.53;;;8.28;94.25
38630;BME280;24384;51.988;4.644;2023-04-16T03:37:04;102414.78;;;8.18;93.98
38630;BME280;24384;51.988;4.644;2023-04-16T03:39:30;102412.16;;;8.22;93.50
38630;BME280;24384;51.988;4.644;2023-04-16T03:41:55;102406.91;;;8.27;93.90
38630;BME280;24384;51.988;4.644;2023-04-16T03:44:20;102417.44;;;8.38;93.57
38630;BME280;24384;51.988;4.644;2023-04-16T03:46:45;102417.44;;;8.33;93.81
38630;BME280;24384;51.988;4.644;2023-04-16T03:49:11;102417.41;;;8.27;93.09
38630;BME280;24384;51.988;4.644;2023-04-16T03:51:36;102410.41;;;8.38;92.80
38630;BME280;24384;51.988;4.644;2023-04-16T03:54:01;102416.56;;;8.27;92.68
38630;BME280;24384;51.988;4.644;2023-04-16T03:56:26;102420.94;;;8.40;92.87
38630;BME280;24384;51.988;4.644;2023-04-16T03:58:51;102414.78;;;8.32;92.31
38630;BME280;24384;51.988;4.644;2023-04-16T04:01:16;102419.19;;;8.37;92.90
38630;BME280;24384;51.988;4.644;2023-04-16T04:03:42;102414.81;;;8.41;93.11
38630;BME280;24384;51.988;4.644;2023-04-16T04:06:07;102415.66;;;8.35;92.94
38630;BME280;24384;51.988;4.644;2023-04-16T04:08:32;102420.06;;;8.35;92.44
38630;BME280;24384;51.988;4.644;2023-04-16T04:10:57;102415.66;;;8.38;92.96
38630;BME280;24384;51.988;4.644;2023-04-16T04:13:24;102415.72;;;8.46;92.64
38630;BME280;24384;51.988;4.644;2023-04-16T04:15:49;102405.16;;;8.35;92.72
38630;BME280;24384;51.988;4.644;2023-04-16T04:18:15;102408.69;;;8.37;92.57
38630;BME280;24384;51.988;4.644;2023-04-16T04:20:40;102417.44;;;8.35;93.12
38630;BME280;24384;51.988;4.644;2023-04-16T04:23:05;102414.81;;;8.35;92.44
38630;BME280;24384;51.988;4.644;2023-04-16T04:25:30;102427.06;;;8.20;93.18
38630;BME280;24384;51.988;4.644;2023-04-16T04:27:55;102420.03;;;8.24;93.44
38630;BME280;24384;51.988;4.644;2023-04-16T04:30:22;102427.94;;;8.30;93.23
38630;BME280;24384;51.988;4.644;2023-04-16T04:32:47;102421.84;;;8.42;92.46
38630;BME280;24384;51.988;4.644;2023-04-16T04:35:13;102427.91;;;8.24;93.55
38630;BME280;24384;51.988;4.644;2023-04-16T04:37:38;102432.31;;;8.20;92.65
38630;BME280;24384;51.988;4.644;2023-04-16T04:40:03;102431.44;;;8.29;93.03
38630;BME280;24384;51.988;4.644;2023-04-16T04:42:30;102434.06;;;8.26;93.62
38630;BME280;24384;51.988;4.644;2023-04-16T04:44:55;102427.94;;;8.32;93.30
38630;BME280;24384;51.988;4.644;2023-04-16T04:47:20;102427.06;;;8.30;93.70
38630;BME280;24384;51.988;4.644;2023-04-16T04:49:46;102427.06;;;8.30;93.43
38630;BME280;24384;51.988;4.644;2023-04-16T04:52:12;102434.06;;;8.40;93.20
38630;BME280;24384;51.988;4.644;2023-04-16T04:54:37;102429.69;;;8.31;93.27
38630;BME280;24384;51.988;4.644;2023-04-16T04:57:05;102427.91;;;8.22;93.37
38630;BME280;24384;51.988;4.644;2023-04-16T04:59:32;102427.06;;;8.27;93.92
38630;BME280;24384;51.988;4.644;2023-04-16T05:01:57;102438.44;;;8.19;93.72
38630;BME280;24384;51.988;4.644;2023-04-16T05:04:24;102434.03;;;8.20;94.54
38630;BME280;24384;51.988;4.644;2023-04-16T05:06:49;102439.25;;;8.03;94.64
38630;BME280;24384;51.988;4.644;2023-04-16T05:09:15;102437.56;;;8.16;94.16
38630;BME280;24384;51.988;4.644;2023-04-16T05:11:40;102435.81;;;8.19;94.18
38630;BME280;24384;51.988;4.644;2023-04-16T05:14:06;102440.19;;;8.14;94.41
38630;BME280;24384;51.988;4.644;2023-04-16T05:16:31;102445.44;;;8.17;93.79
38630;BME280;24384;51.988;4.644;2023-04-16T05:18:56;102444.56;;;8.32;93.46
38630;BME280;24384;51.988;4.644;2023-04-16T05:21:22;102442.84;;;8.25;93.39
38630;BME280;24384;51.988;4.644;2023-04-16T05:23:47;102452.47;;;8.34;92.49
38630;BME280;24384;51.988;4.644;2023-04-16T05:26:12;102448.06;;;8.17;92.85
38630;BME280;24384;51.988;4.644;2023-04-16T05:28:39;102449.81;;;8.18;93.36
38630;BME280;24384;51.988;4.644;2023-04-16T05:31:04;102451.53;;;8.02;94.01
38630;BME280;24384;51.988;4.644;2023-04-16T05:33:29;102456.84;;;8.25;93.53
38630;BME280;24384;51.988;4.644;2023-04-16T05:35:54;102456.81;;;8.19;93.42
38630;BME280;24384;51.988;4.644;2023-04-16T05:38:21;102458.59;;;8.17;93.49
38630;BME280;24384;51.988;4.644;2023-04-16T05:40:46;102465.59;;;8.21;93.73
38630;BME280;24384;51.988;4.644;2023-04-16T05:43:11;102460.31;;;8.23;93.94
38630;BME280;24384;51.988;4.644;2023-04-16T05:45:36;102457.69;;;8.15;94.13
38630;BME280;24384;51.988;4.644;2023-04-16T05:48:08;102461.22;;;8.17;93.46
38630;BME280;24384;51.988;4.644;2023-04-16T05:50:34;102462.03;;;8.07;94.33
38630;BME280;24384;51.988;4.644;2023-04-16T05:52:59;102460.28;;;8.06;94.28
38630;BME280;24384;51.988;4.644;2023-04-16T05:55:24;102466.47;;;8.19;94.25
38630;BME280;24384;51.988;4.644;2023-04-16T05:57:49;102470.84;;;8.24;93.92
38630;BME280;24384;51.988;4.644;2023-04-16T06:00:16;102475.25;;;8.35;93.69
38630;BME280;24384;51.988;4.644;2023-04-16T06:02:41;102469.13;;;8.34;93.64
38630;BME280;24384;51.988;4.644;2023-04-16T06:05:06;102476.13;;;8.31;93.77
38630;BME280;24384;51.988;4.644;2023-04-16T06:07:31;102471.78;;;8.36;93.79
38630;BME280;24384;51.988;4.644;2023-04-16T06:09:57;102476.13;;;8.37;93.50
38630;BME280;24384;51.988;4.644;2023-04-16T06:12:22;102472.66;;;8.41;93.10
38630;BME280;24384;51.988;4.644;2023-04-16T06:14:47;102477.97;;;8.49;93.01
38630;BME280;24384;51.988;4.644;2023-04-16T06:17:12;102482.31;;;8.42;93.29
38630;BME280;24384;51.988;4.644;2023-04-16T06:19:37;102480.56;;;8.46;93.73
38630;BME280;24384;51.988;4.644;2023-04-16T06:22:03;102483.16;;;8.41;93.99
38630;BME280;24384;51.988;4.644;2023-04-16T06:24:30;102485.78;;;8.39;93.72
38630;BME280;24384;51.988;4.644;2023-04-16T06:26:55;102481.38;;;8.31;93.58
38630;BME280;24384;51.988;4.644;2023-04-16T06:29:21;102490.19;;;8.37;93.62
38630;BME280;24384;51.988;4.644;2023-04-16T06:31:49;102484.97;;;8.48;94.08
38630;BME280;24384;51.988;4.644;2023-04-16T06:34:14;102490.22;;;8.44;94.26
38630;BME280;24384;51.988;4.644;2023-04-16T06:36:39;102489.34;;;8.54;93.18
38630;BME280;24384;51.988;4.644;2023-04-16T06:39:05;102499.88;;;8.60;92.91
38630;BME280;24384;51.988;4.644;2023-04-16T06:41:30;102499.88;;;8.65;93.34
38630;BME280;24384;51.988;4.644;2023-04-16T06:43:55;102502.50;;;8.62;93.71
38630;BME280;24384;51.988;4.644;2023-04-16T06:46:20;102502.53;;;8.68;93.78
38630;BME280;24384;51.988;4.644;2023-04-16T06:48:46;102500.78;;;8.60;93.52
38630;BME280;24384;51.988;4.644;2023-04-16T06:51:11;102508.66;;;8.60;93.44
38630;BME280;24384;51.988;4.644;2023-04-16T06:53:37;102506.91;;;8.66;92.97
38630;BME280;24384;51.988;4.644;2023-04-16T06:56:02;102503.41;;;8.60;93.41
38630;BME280;24384;51.988;4.644;2023-04-16T06:58:29;102506.00;;;8.48;93.82
38630;BME280;24384;51.988;4.644;2023-04-16T07:00:54;102509.53;;;8.59;93.99
38630;BME280;24384;51.988;4.644;2023-04-16T07:03:20;102518.31;;;8.68;93.30
38630;BME280;24384;51.988;4.644;2023-04-16T07:05:46;102514.78;;;8.59;93.83
38630;BME280;24384;51.988;4.644;2023-04-16T07:08:11;102519.19;;;8.65;93.62
38630;BME280;24384;51.988;4.644;2023-04-16T07:10:36;102517.44;;;8.63;93.31
38630;BME280;24384;51.988;4.644;2023-04-16T07:13:02;102513.03;;;8.55;93.72
38630;BME280;24384;51.988;4.644;2023-04-16T07:15:27;102525.31;;;8.59;93.41
38630;BME280;24384;51.988;4.644;2023-04-16T07:17:52;102521.84;;;8.73;93.38
38630;BME280;24384;51.988;4.644;2023-04-16T07:20:17;102525.34;;;8.75;93.21
38630;BME280;24384;51.988;4.644;2023-04-16T07:22:42;102518.31;;;8.65;93.64
38630;BME280;24384;51.988;4.644;2023-04-16T07:25:08;102523.56;;;8.68;93.67
38630;BME280;24384;51.988;4.644;2023-04-16T07:27:33;102523.56;;;8.65;93.06
38630;BME280;24384;51.988;4.644;2023-04-16T07:29:58;102522.72;;;8.76;93.07
38630;BME280;24384;51.988;4.644;2023-04-16T07:32:23;102521.84;;;8.67;93.35
38630;BME280;24384;51.988;4.644;2023-04-16T07:34:49;102518.31;;;8.77;92.79
38630;BME280;24384;51.988;4.644;2023-04-16T07:37:14;102520.06;;;8.70;93.26
38630;BME280;24384;51.988;4.644;2023-04-16T07:39:39;102531.47;;;8.77;93.08
38630;BME280;24384;51.988;4.644;2023-04-16T07:42:05;102527.97;;;8.84;92.90
38630;BME280;24384;51.988;4.644;2023-04-16T07:44:30;102530.63;;;8.84;92.60
38630;BME280;24384;51.988;4.644;2023-04-16T07:46:56;102527.97;;;8.81;92.78
38630;BME280;24384;51.988;4.644;2023-04-16T07:49:21;102533.25;;;8.95;92.09
38630;BME280;24384;51.988;4.644;2023-04-16T07:51:46;102539.41;;;9.09;92.44
38630;BME280;24384;51.988;4.644;2023-04-16T07:54:11;102544.66;;;9.05;91.97
38630;BME280;24384;51.988;4.644;2023-04-16T07:56:36;102535.91;;;9.12;91.68
38630;BME280;24384;51.988;4.644;2023-04-16T07:59:02;102539.41;;;9.08;92.22
38630;BME280;24384;51.988;4.644;2023-04-16T08:01:27;102535.91;;;9.29;92.04
38630;BME280;24384;51.988;4.644;2023-04-16T08:03:52;102543.78;;;9.35;92.07
38630;BME280;24384;51.988;4.644;2023-04-16T08:06:18;102546.41;;;9.37;90.81
38630;BME280;24384;51.988;4.644;2023-04-16T08:08:44;102545.53;;;9.53;89.93
38630;BME280;24384;51.988;4.644;2023-04-16T08:11:09;102548.19;;;9.22;90.74
38630;BME280;24384;51.988;4.644;2023-04-16T08:13:34;102556.09;;;9.25;91.38
38630;BME280;24384;51.988;4.644;2023-04-16T08:16:01;102564.84;;;9.35;91.17
38630;BME280;24384;51.988;4.644;2023-04-16T08:18:26;102565.72;;;9.26;90.67
38630;BME280;24384;51.988;4.644;2023-04-16T08:20:51;102566.63;;;9.45;90.09
38630;BME280;24384;51.988;4.644;2023-04-16T08:23:16;102566.63;;;9.44;89.67
38630;BME280;24384;51.988;4.644;2023-04-16T08:25:42;102578.00;;;9.43;90.18
38630;BME280;24384;51.988;4.644;2023-04-16T08:28:08;102578.88;;;9.49;89.97
38630;BME280;24384;51.988;4.644;2023-04-16T08:30:33;102579.78;;;9.58;90.16
38630;BME280;24384;51.988;4.644;2023-04-16T08:32:58;102578.03;;;9.32;90.08
38630;BME280;24384;51.988;4.644;2023-04-16T08:35:24;102583.28;;;9.43;89.88
38630;BME280;24384;51.988;4.644;2023-04-16T08:37:50;102576.25;;;9.45;89.91
38630;BME280;24384;51.988;4.644;2023-04-16T08:40:16;102583.28;;;9.34;90.63
38630;BME280;24384;51.988;4.644;2023-04-16T08:42:45;102580.66;;;9.30;90.40
38630;BME280;24384;51.988;4.644;2023-04-16T08:45:13;102583.28;;;9.30;90.69
38630;BME280;24384;51.988;4.644;2023-04-16T08:47:39;102586.78;;;9.42;90.23
38630;BME280;24384;51.988;4.644;2023-04-16T08:50:05;102583.28;;;9.38;90.40
38630;BME280;24384;51.988;4.644;2023-04-16T08:52:31;102594.69;;;9.42;90.64
38630;BME280;24384;51.988;4.644;2023-04-16T08:55:03;102587.69;;;9.53;90.76
38630;BME280;24384;51.988;4.644;2023-04-16T08:57:36;102587.66;;;9.61;90.16
38630;BME280;24384;51.988;4.644;2023-04-16T09:00:02;102591.19;;;9.54;90.61
38630;BME280;24384;51.988;4.644;2023-04-16T09:02:27;102595.56;;;9.59;89.75
38630;BME280;24384;51.988;4.644;2023-04-16T09:04:54;102593.81;;;9.66;90.22
38630;BME280;24384;51.988;4.644;2023-04-16T09:07:20;102601.69;;;9.67;89.60
38630;BME280;24384;51.988;4.644;2023-04-16T09:09:46;102598.19;;;9.82;89.34
38630;BME280;24384;51.988;4.644;2023-04-16T09:12:12;102597.28;;;9.74;89.74
38630;BME280;24384;51.988;4.644;2023-04-16T09:14:37;102596.41;;;9.78;89.43
38630;BME280;24384;51.988;4.644;2023-04-16T09:17:07;102595.53;;;9.90;89.48
38630;BME280;24384;51.988;4.644;2023-04-16T09:19:33;102596.41;;;9.84;88.93
38630;BME280;24384;51.988;4.644;2023-04-16T09:21:58;102589.34;;;9.96;89.04
38630;BME280;24384;51.988;4.644;2023-04-16T09:24:23;102596.38;;;10.03;88.67
38630;BME280;24384;51.988;4.644;2023-04-16T09:26:49;102600.75;;;10.06;88.53
38630;BME280;24384;51.988;4.644;2023-04-16T09:29:35;102589.31;;;10.10;89.27
38630;BME280;24384;51.988;4.644;2023-04-16T09:32:04;102592.84;;;10.10;88.78
38630;BME280;24384;51.988;4.644;2023-04-16T09:34:33;102601.66;;;10.00;88.01
38630;BME280;24384;51.988;4.644;2023-04-16T09:37:15;102606.88;;;10.17;87.86
38630;BME280;24384;51.988;4.644;2023-04-16T09:39:43;102601.59;;;10.14;88.31
38630;BME280;24384;51.988;4.644;2023-04-16T09:42:09;102621.81;;;10.18;87.40
38630;BME280;24384;51.988;4.644;2023-04-16T09:44:35;102619.16;;;10.24;87.59
38630;BME280;24384;51.988;4.644;2023-04-16T09:47:07;102609.47;;;10.35;87.23
38630;BME280;24384;51.988;4.644;2023-04-16T09:49:33;102607.69;;;10.31;87.08
38630;BME280;24384;51.988;4.644;2023-04-16T09:51:59;102609.44;;;10.42;85.84
38630;BME280;24384;51.988;4.644;2023-04-16T09:54:26;102621.75;;;10.46;86.40
38630;BME280;24384;51.988;4.644;2023-04-16T09:56:51;102618.22;;;10.47;86.59
38630;BME280;24384;51.988;4.644;2023-04-16T09:59:20;102612.06;;;10.48;86.48
38630;BME280;24384;51.988;4.644;2023-04-16T10:01:45;102616.50;;;10.29;86.24
38630;BME280;24384;51.988;4.644;2023-04-16T10:04:11;102622.63;;;10.32;86.88
38630;BME280;24384;51.988;4.644;2023-04-16T10:06:36;102632.38;;;10.18;86.96
38630;BME280;24384;51.988;4.644;2023-04-16T10:09:01;102623.56;;;10.16;86.76
38630;BME280;24384;51.988;4.644;2023-04-16T10:11:33;102637.66;;;10.06;87.76
38630;BME280;24384;51.988;4.644;2023-04-16T10:13:59;102638.53;;;10.06;86.87
38630;BME280;24384;51.988;4.644;2023-04-16T10:16:25;102635.88;;;10.14;87.07
38630;BME280;24384;51.988;4.644;2023-04-16T10:18:50;102631.50;;;10.02;87.49
38630;BME280;24384;51.988;4.644;2023-04-16T10:21:16;102644.69;;;10.00;88.20
38630;BME280;24384;51.988;4.644;2023-04-16T10:23:44;102642.94;;;10.09;87.55
38630;BME280;24384;51.988;4.644;2023-04-16T10:26:09;102649.06;;;10.18;87.69
38630;BME280;24384;51.988;4.644;2023-04-16T10:28:34;102640.28;;;10.21;88.00
38630;BME280;24384;51.988;4.644;2023-04-16T10:31:01;102648.19;;;10.18;87.35
38630;BME280;24384;51.988;4.644;2023-04-16T10:33:28;102652.53;;;10.22;87.34
38630;BME280;24384;51.988;4.644;2023-04-16T10:36:10;102654.28;;;10.31;86.69
38630;BME280;24384;51.988;4.644;2023-04-16T10:38:39;102658.72;;;10.23;87.34
38630;BME280;24384;51.988;4.644;2023-04-16T10:41:05;102651.69;;;10.14;87.03
38630;BME280;24384;51.988;4.644;2023-04-16T10:43:32;102654.34;;;10.03;88.32
38630;BME280;24384;51.988;4.644;2023-04-16T10:46:15;102656.09;;;10.15;88.00
38630;BME280;24384;51.988;4.644;2023-04-16T10:48:41;102653.47;;;10.07;88.26
38630;BME280;24384;51.988;4.644;2023-04-16T10:51:06;102658.75;;;10.09;87.29
38630;BME280;24384;51.988;4.644;2023-04-16T10:53:31;102655.19;;;10.19;87.60
38630;BME280;24384;51.988;4.644;2023-04-16T10:58:34;102660.44;;;10.28;86.66
38630;BME280;24384;51.988;4.644;2023-04-16T11:01:00;102658.69;;;10.30;86.79
38630;BME280;24384;51.988;4.644;2023-04-16T11:03:30;102657.81;;;10.34;86.91
38630;BME280;24384;51.988;4.644;2023-04-16T11:06:15;102657.81;;;10.34;87.12
38630;BME280;24384;51.988;4.644;2023-04-16T11:08:44;102656.06;;;10.38;87.55
38630;BME280;24384;51.988;4.644;2023-04-16T11:11:10;102661.34;;;10.21;87.34
38630;BME280;24384;51.988;4.644;2023-04-16T11:13:36;102658.72;;;10.38;87.10
38630;BME280;24384;51.988;4.644;2023-04-16T11:16:01;102650.78;;;10.44;86.41
38630;BME280;24384;51.988;4.644;2023-04-16T11:18:27;102655.16;;;10.44;86.18
38630;BME280;24384;51.988;4.644;2023-04-16T11:20:52;102641.06;;;10.51;85.63
38630;BME280;24384;51.988;4.644;2023-04-16T11:23:17;102657.81;;;10.27;86.42
38630;BME280;24384;51.988;4.644;2023-04-16T11:25:43;102659.59;;;10.34;85.86
38630;BME280;24384;51.988;4.644;2023-04-16T11:28:09;102649.88;;;10.39;85.95
38630;BME280;24384;51.988;4.644;2023-04-16T11:30:34;102661.31;;;10.44;85.55
38630;BME280;24384;51.988;4.644;2023-04-16T11:33:07;102652.47;;;10.53;85.40
38630;BME280;24384;51.988;4.644;2023-04-16T11:35:32;102654.28;;;10.43;86.06
38630;BME280;24384;51.988;4.644;2023-04-16T11:37:58;102649.88;;;10.31;86.12
38630;BME280;24384;51.988;4.644;2023-04-16T11:40:23;102654.25;;;10.52;84.54
38630;BME280;24384;51.988;4.644;2023-04-16T11:42:48;102656.94;;;10.38;85.13
38630;BME280;24384;51.988;4.644;2023-04-16T11:45:13;102656.06;;;10.44;86.00
38630;BME280;24384;51.988;4.644;2023-04-16T11:47:46;102663.97;;;10.38;86.11
38630;BME280;24384;51.988;4.644;2023-04-16T11:50:15;102655.16;;;10.42;86.76
38630;BME280;24384;51.988;4.644;2023-04-16T11:52:40;102651.59;;;10.59;85.57
38630;BME280;24384;51.988;4.644;2023-04-16T11:55:05;102662.16;;;10.54;85.25
38630;BME280;24384;51.988;4.644;2023-04-16T11:57:31;102651.63;;;10.46;85.50
38630;BME280;24384;51.988;4.644;2023-04-16T11:59:57;102653.44;;;10.30;86.65
38630;BME280;24384;51.988;4.644;2023-04-16T12:02:38;102656.94;;;10.35;85.88
38630;BME280;24384;51.988;4.644;2023-04-16T12:05:04;102656.91;;;10.43;85.71
38630;BME280;24384;51.988;4.644;2023-04-16T12:07:31;102663.03;;;10.56;84.98
38630;BME280;24384;51.988;4.644;2023-04-16T12:10:07;102654.19;;;10.65;85.54
38630;BME280;24384;51.988;4.644;2023-04-16T12:12:32;102660.41;;;10.53;85.58
38630;BME280;24384;51.988;4.644;2023-04-16T12:14:59;102662.13;;;10.65;85.19
38630;BME280;24384;51.988;4.644;2023-04-16T12:17:27;102662.16;;;10.54;85.29
38630;BME280;24384;51.988;4.644;2023-04-16T12:19:55;102674.50;;;10.50;86.16
38630;BME280;24384;51.988;4.644;2023-04-16T12:22:31;102668.31;;;10.53;85.59
38630;BME280;24384;51.988;4.644;2023-04-16T12:25:04;102671.78;;;10.60;85.37
38630;BME280;24384;51.988;4.644;2023-04-16T12:27:42;102665.59;;;10.70;85.22
38630;BME280;24384;51.988;4.644;2023-04-16T12:30:09;102662.97;;;10.68;85.33
38630;BME280;24384;51.988;4.644;2023-04-16T12:32:35;102668.25;;;10.70;85.82
38630;BME280;24384;51.988;4.644;2023-04-16T12:35:00;102664.72;;;10.71;85.68
38630;BME280;24384;51.988;4.644;2023-04-16T12:37:25;102662.97;;;10.68;84.83
38630;BME280;24384;51.988;4.644;2023-04-16T12:39:51;102659.38;;;10.86;84.86
38630;BME280;24384;51.988;4.644;2023-04-16T12:42:17;102668.06;;;11.07;84.34
38630;BME280;24384;51.988;4.644;2023-04-16T12:44:42;102668.06;;;11.02;83.89
38630;BME280;24384;51.988;4.644;2023-04-16T12:47:07;102666.34;;;10.93;84.42
38630;BME280;24384;51.988;4.644;2023-04-16T12:49:32;102676.88;;;10.98;83.79
38630;BME280;24384;51.988;4.644;2023-04-16T12:51:57;102672.56;;;10.88;84.33
38630;BME280;24384;51.988;4.644;2023-04-16T12:54:23;102674.25;;;10.97;85.14